createdAt,value
2018-11-10T00:02:25.385Z,80.87
2018-11-10T00:07:27.956Z,66.27
2018-11-10T00:12:49.170Z,80.50
2018-11-10T00:17:51.447Z,86.97
2018-11-10T00:22:53.788Z,90.57
2018-11-10T00:27:56.090Z,80.53
2018-11-10T00:32:58.394Z,88.77
2018-11-10T00:38:00.738Z,72.03
2018-11-10T00:43:03.149Z,72.43
2018-11-10T00:48:05.781Z,74.80
2018-11-10T00:53:08.101Z,81.47
2018-11-10T00:58:10.442Z,78.17
2018-11-10T01:03:12.764Z,81.00
2018-11-10T01:08:15.132Z,88.40
2018-11-10T01:13:17.434Z,76.37
2018-11-10T01:18:19.742Z,86.00
2018-11-10T01:23:22.114Z,81.67
2018-11-10T01:28:24.570Z,91.00
2018-11-10T01:33:26.893Z,81.50
2018-11-10T01:38:29.316Z,90.30
2018-11-10T01:43:31.577Z,94.07
2018-11-10T01:48:33.833Z,79.40
2018-11-10T01:53:36.104Z,90.17
2018-11-10T01:58:38.425Z,94.07
2018-11-10T02:03:40.725Z,97.70
2018-11-10T02:08:43.022Z,85.33
2018-11-10T02:13:45.319Z,98.40
2018-11-10T02:18:47.593Z,93.07
2018-11-10T02:23:49.922Z,91.43
2018-11-10T02:28:52.286Z,79.90
2018-11-10T02:33:54.553Z,79.00
2018-11-10T02:38:56.866Z,81.83
2018-11-10T02:43:59.138Z,78.10
2018-11-10T02:49:01.489Z,94.50
2018-11-10T02:54:03.966Z,78.63
2018-11-10T02:59:06.898Z,81.43
2018-11-10T03:04:09.369Z,79.27
2018-11-10T03:09:11.792Z,82.77
2018-11-10T03:14:14.065Z,71.50
2018-11-10T03:19:16.353Z,80.10
2018-11-10T03:24:18.733Z,77.73
2018-11-10T03:29:21.105Z,82.80
2018-11-10T03:34:23.383Z,81.13
2018-11-10T03:39:25.786Z,80.10
2018-11-10T03:44:28.061Z,74.10
2018-11-10T03:49:30.366Z,68.17
2018-11-10T03:54:32.662Z,68.23
2018-11-10T03:59:34.954Z,72.20
2018-11-10T04:04:37.282Z,62.63
2018-11-10T04:09:39.717Z,61.13
2018-11-10T04:14:41.938Z,67.27
2018-11-10T04:19:44.179Z,54.57
2018-11-10T04:24:46.389Z,67.50
2018-11-10T04:29:48.700Z,62.10
2018-11-10T04:34:50.926Z,74.53
2018-11-10T04:39:53.198Z,84.07
2018-11-10T04:44:55.412Z,88.17
2018-11-10T04:49:57.677Z,78.80
2018-11-10T04:54:59.928Z,74.53
2018-11-10T05:00:02.239Z,68.67
2018-11-10T05:05:05.272Z,66.37
2018-11-10T05:10:08.472Z,66.47
2018-11-10T05:15:11.973Z,65.83
2018-11-10T05:20:14.241Z,64.03
2018-11-10T05:25:16.625Z,61.30
2018-11-10T05:30:18.837Z,58.33
2018-11-10T05:35:21.072Z,60.40
2018-11-10T05:40:23.358Z,58.97
2018-11-10T05:45:25.590Z,60.83
2018-11-10T05:50:27.839Z,62.33
2018-11-10T05:55:30.124Z,56.50
2018-11-10T06:00:32.413Z,58.57
2018-11-10T06:05:34.715Z,55.73
2018-11-10T06:10:36.999Z,50.50
2018-11-10T06:15:39.474Z,58.87
2018-11-10T06:20:42.144Z,60.30
2018-11-10T06:25:44.459Z,56.77
2018-11-10T06:30:46.683Z,57.40
2018-11-10T06:35:48.935Z,47.03
2018-11-10T06:40:51.351Z,55.27
2018-11-10T06:45:53.611Z,52.40
2018-11-10T06:50:56.004Z,48.03
2018-11-10T06:55:58.224Z,53.20
2018-11-10T07:01:00.609Z,47.87
2018-11-10T07:06:02.956Z,48.30
2018-11-10T07:11:05.244Z,41.93
2018-11-10T07:16:07.478Z,45.80
2018-11-10T07:21:09.696Z,43.93
2018-11-10T07:26:11.918Z,43.47
2018-11-10T07:31:14.163Z,40.40
2018-11-10T07:36:16.581Z,38.07
2018-11-10T07:41:18.932Z,45.80
2018-11-10T07:46:21.149Z,40.43
2018-11-10T07:51:23.507Z,40.30
2018-11-10T07:56:25.657Z,41.47
2018-11-10T08:01:27.913Z,43.77
2018-11-10T08:06:30.191Z,39.90
2018-11-10T08:11:32.503Z,37.07
2018-11-10T08:16:35.087Z,37.53
2018-11-10T08:21:37.405Z,35.63
2018-11-10T08:26:39.644Z,32.63
2018-11-10T08:31:41.963Z,34.33
2018-11-10T08:36:44.236Z,29.60
2018-11-10T08:41:46.541Z,29.87
2018-11-10T08:46:48.891Z,29.67
2018-11-10T08:51:51.146Z,26.77
2018-11-10T08:56:53.480Z,27.37
2018-11-10T09:01:55.738Z,23.17
2018-11-10T09:06:58.036Z,25.63
2018-11-10T09:12:00.562Z,21.73
2018-11-10T09:17:02.829Z,20.97
2018-11-10T09:22:06.048Z,20.83
2018-11-10T09:27:08.307Z,18.07
2018-11-10T09:32:10.654Z,16.43
2018-11-10T09:37:12.914Z,18.23
2018-11-10T09:42:15.273Z,15.33
2018-11-10T09:47:17.487Z,13.97
2018-11-10T09:52:19.758Z,16.50
2018-11-10T09:57:22.132Z,13.03
2018-11-10T10:02:24.878Z,15.07
2018-11-10T10:07:26.735Z,11.60
2018-11-10T10:12:29.072Z,13.65
2018-11-10T10:17:31.599Z,13.25
2018-11-10T10:22:33.845Z,10.48
2018-11-10T10:27:36.386Z,11.63
2018-11-10T10:32:38.764Z,12.25
2018-11-10T10:37:41.248Z,10.00
2018-11-10T10:42:44.995Z,13.13
2018-11-10T10:47:47.254Z,8.83
2018-11-10T10:52:49.505Z,10.68
2018-11-10T10:57:51.762Z,14.30
2018-11-10T11:04:01.921Z,9.78
2018-11-10T11:09:05.780Z,9.63
2018-11-10T11:14:08.073Z,9.35
2018-11-10T11:19:10.326Z,9.40
2018-11-10T11:24:12.591Z,9.85
2018-11-10T11:29:14.975Z,9.38
2018-11-10T11:34:17.521Z,9.43
2018-11-10T11:39:19.765Z,9.58
2018-11-10T11:44:22.055Z,8.95
2018-11-10T11:49:24.305Z,8.20
2018-11-10T11:54:26.558Z,9.80
2018-11-10T11:59:28.800Z,10.08
2018-11-10T12:04:31.179Z,7.72
2018-11-10T12:09:33.372Z,8.03
2018-11-10T12:14:35.620Z,9.78
2018-11-10T12:19:37.871Z,8.45
2018-11-10T12:24:40.088Z,7.90
2018-11-10T12:29:42.335Z,8.38
2018-11-10T12:34:44.587Z,9.68
2018-11-10T12:39:46.809Z,7.60
2018-11-10T12:44:49.065Z,6.70
2018-11-10T12:49:51.336Z,9.83
2018-11-10T12:54:53.787Z,7.22
2018-11-10T12:59:56.228Z,7.75
2018-11-10T13:04:58.645Z,7.60
2018-11-10T13:10:01.059Z,7.80
2018-11-10T13:15:03.478Z,8.13
2018-11-10T13:20:07.849Z,8.75
2018-11-10T13:25:11.160Z,8.13
2018-11-10T13:30:14.554Z,8.40
2018-11-10T13:35:16.796Z,9.90
2018-11-10T13:40:19.020Z,10.72
2018-11-10T13:45:21.287Z,8.83
2018-11-10T13:50:23.516Z,9.03
2018-11-10T13:55:25.760Z,8.18
2018-11-10T14:00:28.011Z,8.28
2018-11-10T14:05:30.319Z,8.98
2018-11-10T14:10:32.544Z,10.08
2018-11-10T14:15:34.840Z,8.85
2018-11-10T14:20:37.125Z,11.30
2018-11-10T14:25:39.361Z,9.05
2018-11-10T14:30:41.591Z,11.93
2018-11-10T14:35:43.817Z,12.53
2018-11-10T14:40:46.051Z,10.78
2018-11-10T14:45:48.316Z,11.55
2018-11-10T14:50:50.609Z,10.43
2018-11-10T14:55:52.863Z,10.43
2018-11-10T15:00:55.158Z,13.35
2018-11-10T15:05:57.440Z,14.47
2018-11-10T15:10:59.671Z,15.13
2018-11-10T15:16:01.994Z,13.40
2018-11-10T15:21:04.254Z,15.43
2018-11-10T15:26:06.493Z,16.15
2018-11-10T15:31:08.778Z,16.02
2018-11-10T15:36:10.996Z,17.10
2018-11-10T15:41:13.258Z,15.75
2018-11-10T15:46:15.542Z,16.65
2018-11-10T15:51:17.800Z,15.88
2018-11-10T15:56:26.972Z,16.60
2018-11-10T16:01:29.352Z,16.50
2018-11-10T16:06:31.613Z,18.20
2018-11-10T16:11:33.894Z,17.73
2018-11-10T16:16:36.572Z,16.37
2018-11-10T16:21:38.822Z,18.02
2018-11-10T16:26:41.130Z,18.98
2018-11-10T16:31:43.408Z,19.23
2018-11-10T16:36:45.722Z,17.82
2018-11-10T16:41:47.984Z,19.52
2018-11-10T16:46:50.930Z,17.05
2018-11-10T16:51:53.415Z,18.55
2018-11-10T16:56:55.670Z,17.92
2018-11-10T17:01:57.945Z,18.00
2018-11-10T17:07:00.312Z,18.17
2018-11-10T17:12:02.642Z,17.35
2018-11-10T17:17:05.244Z,16.93
2018-11-10T17:22:07.552Z,19.62
2018-11-10T17:27:09.838Z,19.57
2018-11-10T17:32:12.077Z,20.55
2018-11-10T17:37:14.337Z,20.85
2018-11-10T17:42:16.663Z,21.77
2018-11-10T17:47:18.912Z,18.50
2018-11-10T17:52:21.317Z,20.72
2018-11-10T17:57:23.434Z,21.05
2018-11-10T18:02:25.792Z,21.73
2018-11-10T18:07:28.033Z,19.55
2018-11-10T18:12:30.296Z,21.62
2018-11-10T18:17:32.810Z,21.83
2018-11-10T18:22:35.238Z,23.12
2018-11-10T18:27:37.930Z,24.15
2018-11-10T18:32:40.354Z,24.30
2018-11-10T18:37:42.849Z,27.13
2018-11-10T18:42:45.128Z,24.77
2018-11-10T18:47:47.417Z,23.05
2018-11-10T18:52:49.682Z,26.23
2018-11-10T18:57:51.961Z,24.25
2018-11-10T19:02:54.318Z,22.17
2018-11-10T19:07:56.615Z,23.35
2018-11-10T19:12:59.484Z,28.17
2018-11-10T19:18:01.776Z,22.75
2018-11-10T19:23:04.248Z,24.05
2018-11-10T19:28:06.506Z,21.70
2018-11-10T19:33:08.897Z,21.75
2018-11-10T19:38:11.162Z,21.25
2018-11-10T19:43:13.731Z,21.48
2018-11-10T19:48:16.019Z,22.83
2018-11-10T19:53:18.301Z,25.68
2018-11-10T19:58:20.578Z,22.93
2018-11-10T20:03:22.844Z,22.07
2018-11-10T20:08:25.068Z,24.40
2018-11-10T20:13:27.413Z,23.95
2018-11-10T20:18:29.704Z,26.03
2018-11-10T20:23:32.111Z,24.83
2018-11-10T20:28:34.380Z,24.37
2018-11-10T20:33:36.630Z,24.05
2018-11-10T20:38:38.914Z,24.75
2018-11-10T20:43:41.128Z,24.35
2018-11-10T20:48:43.520Z,24.07
2018-11-10T20:53:45.810Z,23.83
2018-11-10T20:58:48.063Z,25.57
2018-11-10T21:03:50.713Z,24.82
2018-11-10T21:08:53.608Z,22.87
2018-11-10T21:13:55.939Z,25.95
2018-11-10T21:18:58.260Z,24.67
2018-11-10T21:24:00.510Z,24.37
2018-11-10T21:29:02.774Z,27.03
2018-11-10T21:34:05.410Z,25.73
2018-11-10T21:39:08.854Z,26.23
2018-11-10T21:44:11.076Z,25.00
2018-11-10T21:49:13.503Z,25.93
2018-11-10T21:54:15.662Z,25.23
2018-11-10T21:59:17.889Z,26.33
2018-11-10T22:04:20.174Z,26.57
2018-11-10T22:09:22.626Z,26.60
2018-11-10T22:14:24.774Z,25.77
2018-11-10T22:19:27.070Z,26.93
2018-11-10T22:24:29.308Z,26.40
2018-11-10T22:29:31.566Z,27.73
2018-11-10T22:34:33.827Z,27.45
2018-11-10T22:39:36.067Z,27.60
2018-11-10T22:44:38.324Z,26.83
2018-11-10T22:49:40.623Z,27.27
2018-11-10T22:54:42.855Z,26.00
2018-11-10T22:59:45.122Z,26.52
2018-11-10T23:04:47.368Z,27.90
2018-11-10T23:09:49.673Z,28.20
2018-11-10T23:14:51.899Z,26.83
2018-11-10T23:19:54.256Z,29.90
2018-11-10T23:24:56.471Z,29.57
2018-11-10T23:29:58.733Z,28.50
2018-11-10T23:35:00.946Z,29.13
2018-11-10T23:40:03.283Z,28.00
2018-11-10T23:45:05.998Z,27.43
2018-11-10T23:50:10.505Z,27.17
2018-11-10T23:55:13.641Z,27.37
